Accueil
METAR-TAF:

METAR-TAF

Aéroports :

Everett, Washington, États-Unis

Aéroport de Paine Field

latitude: 47-55-23N, longitude: 122-16-57W, altitude: 184 m

Observation

Le bulletin a été fait il y a 15 minutes, à 10:53 UTC
Vent 11 kt de est/sud-est avec des rafales jusqu'à 14 kt
Température 7°C
Humidité 39%
Pression 1027 hPa
Visibilité: 16.1 km
Ciel clair

METAR: KPAE 111053Z 12011G14KT 10SM CLR 07/M06 A3032 RMK AO2 SLP269 T00671061

Heure: 03:08 (11:08 UTC)

Prévision

Le bulletin a été fait il y a 5 heures et 30 minutes, à 05:38 UTC
Prévision valable du 11 à 06 UTC au 12 à 06 UTC
Vent 4 kt de nord
Visibilité: 10 km
Ciel clair
A partir de 11 à 1000 UTC
Vent 3 kt de est/sud-est
Visibilité: 10 km
Ciel clair
brouillard à proximité
A partir de 11 à 2000 UTC
Vent 7 kt de sud-est
Visibilité: 10 km
Nuages épars à une hauteur de 20000 ft

TAF: KPAE 110538Z 1106/1206 36004KT P6SM SKC FM111000 12003KT P6SM VCFG SKC FM112000 13007KT P6SM SCT200

Observations et prévisions météorologiques de plus de 4000 aéroports (messages METAR et TAF).

Les stations disponibles sont représentées par des disques jaunes et rouges sur la carte.

Passer la souris dessus pour voir le nom de la station.

Cliquer dessus pour voir les observations et prévisions météorologiques.

Pour changer de carte: cliquez sur les boutons verts avec une croix noire pour zoomer, sur le bouton vert avec un tiret pour effectuer un zoom arrière, ou sur les flèches vertes pour les cartes adjacentes.


METAR-TAF: